Time;durP1;ratioP1;P1;durP2;ratioP2;P2;SDS_P1;SDS_P2;PMS_P1;PMS_P2;Temp;Humidity;BMP_temperature;BMP_pressure;BME280_temperature;BME280_humidity;BME280_pressure;Samples;Min_cycle;Max_cycle;Signal;HPM_P1;HPM_P2
2024/02/15 00:00:38;;;;;;;25.87;13.50;;;11.00;99.90;;;;;;5011375;28;20274;-50
2024/02/15 00:03:06;;;;;;;23.17;13.17;;;11.00;99.90;;;;;;5016756;28;20207;-53
2024/02/15 00:05:36;;;;;;;25.90;13.07;;;11.00;99.90;;;;;;5010817;28;20215;-50
2024/02/15 00:08:04;;;;;;;23.17;12.70;;;11.10;99.90;;;;;;4993244;28;20215;-52
2024/02/15 00:10:31;;;;;;;24.57;13.90;;;11.10;99.90;;;;;;5011463;28;20192;-52
2024/02/15 00:12:57;;;;;;;25.00;13.27;;;11.10;99.90;;;;;;5011064;28;20193;-49
2024/02/15 00:15:24;;;;;;;27.17;12.50;;;11.10;99.90;;;;;;5014437;28;20223;-50
2024/02/15 00:17:52;;;;;;;24.90;13.50;;;11.10;99.90;;;;;;5009771;28;20946;-48
2024/02/15 00:20:20;;;;;;;21.17;12.03;;;11.10;99.90;;;;;;5014397;28;20223;-49
2024/02/15 00:22:49;;;;;;;26.53;12.90;;;11.10;99.90;;;;;;4982946;28;20195;-49
2024/02/15 00:25:17;;;;;;;22.63;12.37;;;11.10;99.90;;;;;;5013250;28;20230;-53
2024/02/15 00:27:43;;;;;;;23.97;13.33;;;11.10;99.90;;;;;;5011117;28;20254;-49
2024/02/15 00:30:12;;;;;;;18.57;11.60;;;11.10;99.90;;;;;;5008973;28;20957;-53
2024/02/15 00:32:39;;;;;;;22.20;11.47;;;11.10;99.90;;;;;;5019623;28;20195;-52
2024/02/15 00:35:07;;;;;;;19.63;12.23;;;11.10;99.90;;;;;;5014150;28;20237;-50
2024/02/15 00:37:34;;;;;;;22.27;12.37;;;11.10;99.90;;;;;;4997127;28;20211;-51
2024/02/15 00:40:03;;;;;;;20.63;11.47;;;11.10;99.90;;;;;;5020728;28;20303;-52
2024/02/15 00:42:31;;;;;;;22.77;11.27;;;11.10;99.90;;;;;;5023578;28;20557;-49
2024/02/15 00:44:58;;;;;;;22.40;11.90;;;11.20;99.90;;;;;;5022073;28;20266;-50
2024/02/15 00:47:25;;;;;;;19.90;11.43;;;11.20;99.90;;;;;;5019092;28;20223;-49
2024/02/15 00:49:52;;;;;;;20.10;12.40;;;11.20;99.90;;;;;;5021271;28;20535;-51
2024/02/15 00:52:19;;;;;;;23.43;13.37;;;11.20;99.90;;;;;;5019767;28;20196;-48
2024/02/15 00:54:46;;;;;;;20.67;13.17;;;11.20;99.90;;;;;;4994558;28;20745;-51
2024/02/15 00:57:14;;;;;;;25.07;13.87;;;11.20;99.90;;;;;;5012173;28;20188;-50
2024/02/15 00:59:41;;;;;;;20.33;12.97;;;11.20;99.90;;;;;;5017739;28;20216;-48
2024/02/15 01:02:08;;;;;;;24.77;13.50;;;11.20;99.90;;;;;;5016237;28;20200;-51
2024/02/15 01:04:35;;;;;;;27.87;15.50;;;11.20;99.90;;;;;;5017385;28;20272;-52
2024/02/15 01:07:02;;;;;;;27.80;15.60;;;11.20;99.90;;;;;;5012764;28;20503;-48
2024/02/15 01:09:30;;;;;;;26.03;15.23;;;11.20;99.90;;;;;;4992246;28;20729;-50
2024/02/15 01:11:56;;;;;;;26.50;15.20;;;11.20;99.90;;;;;;5013251;28;20270;-52
2024/02/15 01:14:29;;;;;;;29.77;16.97;;;11.30;99.90;;;;;;5018431;28;20205;-51
2024/02/15 01:16:56;;;;;;;30.47;16.20;;;11.20;99.90;;;;;;5014990;28;20208;-51
2024/02/15 01:19:23;;;;;;;30.30;16.43;;;11.30;99.90;;;;;;5016481;28;20234;-50
2024/02/15 01:21:50;;;;;;;29.27;16.77;;;11.20;99.90;;;;;;5013262;28;20201;-49
2024/02/15 01:24:16;;;;;;;28.63;16.00;;;11.20;99.90;;;;;;5016623;28;20369;-48
2024/02/15 01:26:43;;;;;;;30.03;16.50;;;11.20;99.90;;;;;;4992987;28;20208;-51
2024/02/15 01:29:12;;;;;;;29.80;16.83;;;11.30;99.90;;;;;;5015468;28;20198;-53
2024/02/15 01:31:41;;;;;;;27.47;15.97;;;11.30;99.90;;;;;;5015846;28;20643;-48
2024/02/15 01:34:07;;;;;;;25.90;14.87;;;11.30;99.90;;;;;;5014359;28;20192;-52
2024/02/15 01:36:34;;;;;;;27.37;15.47;;;11.30;99.90;;;;;;5017551;28;20191;-51
2024/02/15 01:39:01;;;;;;;26.73;15.93;;;11.30;99.90;;;;;;5010501;28;20204;-53
2024/02/15 01:41:28;;;;;;;27.10;14.97;;;11.30;99.90;;;;;;4990495;28;20286;-52
2024/02/15 01:43:55;;;;;;;24.77;15.50;;;11.30;99.90;;;;;;5012804;28;20223;-49
2024/02/15 01:46:22;;;;;;;25.07;15.23;;;11.30;99.90;;;;;;5020267;28;20216;-49
2024/02/15 01:48:51;;;;;;;29.17;15.63;;;11.30;99.90;;;;;;5010186;28;20200;-48
2024/02/15 01:51:18;;;;;;;29.40;15.63;;;11.30;99.90;;;;;;5018146;28;20195;-50
2024/02/15 01:53:45;;;;;;;26.40;15.87;;;11.30;99.90;;;;;;5014425;28;20200;-50
2024/02/15 01:56:15;;;;;;;25.23;15.07;;;11.30;99.90;;;;;;4993820;28;20255;-50
2024/02/15 01:58:42;;;;;;;26.17;15.40;;;11.30;99.90;;;;;;5012701;28;20196;-51
2024/02/15 02:01:09;;;;;;;29.77;17.37;;;11.30;99.90;;;;;;5016666;28;20216;-51
2024/02/15 02:03:36;;;;;;;31.33;17.53;;;11.30;99.90;;;;;;5013828;28;20192;-49
2024/02/15 02:06:05;;;;;;;33.67;18.43;;;11.30;99.90;;;;;;5015967;28;20239;-52
2024/02/15 02:08:32;;;;;;;33.60;19.70;;;11.30;99.90;;;;;;5013135;28;20324;-50
2024/02/15 02:11:01;;;;;;;37.00;18.37;;;11.30;99.90;;;;;;4993042;28;20204;-49
2024/02/15 02:13:28;;;;;;;30.93;18.53;;;11.30;99.90;;;;;;5016217;28;20275;-52
2024/02/15 02:15:56;;;;;;;33.40;18.90;;;11.30;99.90;;;;;;5014668;28;20239;-50
2024/02/15 02:18:24;;;;;;;30.73;17.37;;;11.30;99.90;;;;;;5012908;28;20192;-49
2024/02/15 02:20:51;;;;;;;30.77;18.27;;;11.30;99.90;;;;;;5013996;28;20590;-48
2024/02/15 02:23:22;;;;;;;36.10;18.77;;;11.30;99.90;;;;;;5013708;28;20261;-49
2024/02/15 02:25:52;;;;;;;35.23;19.60;;;11.30;99.90;;;;;;5014311;28;20244;-48
2024/02/15 02:28:19;;;;;;;33.67;19.80;;;11.30;99.90;;;;;;4993942;28;20636;-49
2024/02/15 02:30:46;;;;;;;29.50;18.73;;;11.30;99.90;;;;;;5016173;28;20209;-50
2024/02/15 02:33:18;;;;;;;32.23;18.47;;;11.30;99.90;;;;;;5017045;28;20214;-52
2024/02/15 02:35:45;;;;;;;31.67;18.23;;;11.30;99.90;;;;;;5018719;28;20249;-48
2024/02/15 02:38:14;;;;;;;30.53;18.53;;;11.30;99.90;;;;;;5019595;28;20245;-51
2024/02/15 02:40:41;;;;;;;31.87;18.13;;;11.30;99.90;;;;;;5016644;28;20212;-48
2024/02/15 02:43:09;;;;;;;33.63;18.27;;;11.30;99.90;;;;;;4995206;28;20218;-51
2024/02/15 02:45:36;;;;;;;33.17;19.17;;;11.30;99.90;;;;;;5018848;28;20232;-52
2024/02/15 02:48:03;;;;;;;33.00;17.60;;;11.30;99.90;;;;;;5020298;28;20200;-51
2024/02/15 02:50:30;;;;;;;29.90;18.13;;;11.40;99.90;;;;;;5016217;28;20189;-51
2024/02/15 02:52:57;;;;;;;31.07;17.87;;;11.30;99.90;;;;;;5014932;28;20204;-49
2024/02/15 02:55:27;;;;;;;31.70;17.90;;;11.30;99.90;;;;;;5015104;28;20399;-53
2024/02/15 02:57:54;;;;;;;30.17;17.73;;;11.30;99.90;;;;;;4993881;28;20211;-50
2024/02/15 03:00:23;;;;;;;29.80;17.90;;;11.30;99.90;;;;;;5013018;28;20420;-50
2024/02/15 03:02:50;;;;;;;30.87;17.57;;;11.30;99.90;;;;;;5013798;28;20243;-49
2024/02/15 03:05:16;;;;;;;30.80;16.17;;;11.40;99.90;;;;;;5012513;28;20314;-51
2024/02/15 03:07:44;;;;;;;30.63;16.27;;;11.30;99.90;;;;;;5016809;28;20215;-51
2024/02/15 03:10:13;;;;;;;29.83;16.07;;;11.30;99.90;;;;;;5012616;28;20223;-53
2024/02/15 03:12:43;;;;;;;29.10;15.80;;;11.40;99.90;;;;;;4987673;28;20354;-48
2024/02/15 03:15:11;;;;;;;27.57;16.37;;;11.40;99.90;;;;;;5016249;28;20256;-52
2024/02/15 03:17:41;;;;;;;26.43;15.33;;;11.30;99.90;;;;;;5012686;28;20265;-49
2024/02/15 03:20:11;;;;;;;25.80;15.43;;;11.40;99.90;;;;;;5018861;28;20705;-51
2024/02/15 03:22:39;;;;;;;26.40;15.23;;;11.40;99.90;;;;;;5014731;28;20188;-50
2024/02/15 03:25:07;;;;;;;27.13;15.30;;;11.40;99.90;;;;;;5016656;28;20248;-53
2024/02/15 03:27:35;;;;;;;31.20;15.40;;;11.40;99.90;;;;;;4989291;28;20203;-48
2024/02/15 03:30:03;;;;;;;25.10;14.50;;;11.40;99.90;;;;;;5017956;28;20224;-51
2024/02/15 03:32:30;;;;;;;27.20;14.90;;;11.40;99.90;;;;;;5014291;28;20188;-53
2024/02/15 03:35:00;;;;;;;26.67;15.90;;;11.40;99.90;;;;;;5013701;28;20781;-53
2024/02/15 03:37:27;;;;;;;31.70;15.53;;;11.40;99.90;;;;;;5007885;28;20973;-50
2024/02/15 03:39:54;;;;;;;25.07;15.07;;;11.40;99.90;;;;;;5015811;28;20238;-49
2024/02/15 03:42:21;;;;;;;27.80;15.67;;;11.40;99.90;;;;;;5014001;28;20215;-52
2024/02/15 03:44:48;;;;;;;26.37;14.20;;;11.40;99.90;;;;;;4991851;28;20212;-48
2024/02/15 03:47:15;;;;;;;27.10;15.43;;;11.40;99.90;;;;;;5020212;28;20203;-51
2024/02/15 03:49:42;;;;;;;27.60;15.37;;;11.40;99.90;;;;;;5015535;28;20202;-51
2024/02/15 03:52:11;;;;;;;25.67;15.20;;;11.40;99.90;;;;;;5019498;28;20204;-52
2024/02/15 03:54:38;;;;;;;29.23;15.10;;;11.40;99.90;;;;;;5016293;28;20648;-52
2024/02/15 03:57:06;;;;;;;23.87;15.33;;;11.40;99.90;;;;;;5015877;28;20287;-48
2024/02/15 03:59:34;;;;;;;27.80;14.67;;;11.40;99.90;;;;;;4984419;28;20197;-52
2024/02/15 04:02:03;;;;;;;26.40;13.77;;;11.50;99.90;;;;;;5018812;28;20203;-52
2024/02/15 04:04:30;;;;;;;28.73;15.90;;;11.40;99.90;;;;;;5014101;28;20232;-50
2024/02/15 04:06:58;;;;;;;32.37;15.10;;;11.40;99.90;;;;;;5017345;28;20184;-49
2024/02/15 04:09:26;;;;;;;31.37;17.43;;;11.50;99.90;;;;;;5018619;28;20215;-51
2024/02/15 04:11:53;;;;;;;28.50;14.97;;;11.50;99.90;;;;;;5014700;28;20235;-49
2024/02/15 04:14:20;;;;;;;30.90;16.33;;;11.40;99.90;;;;;;4993828;28;20433;-51
2024/02/15 04:16:47;;;;;;;32.20;15.90;;;11.40;99.90;;;;;;5014248;28;20212;-49
2024/02/15 04:19:14;;;;;;;31.27;15.90;;;11.40;99.90;;;;;;5015747;28;20195;-51
2024/02/15 04:21:44;;;;;;;24.10;14.27;;;11.50;99.90;;;;;;5012154;28;20297;-51
2024/02/15 04:24:11;;;;;;;30.17;15.57;;;11.50;99.90;;;;;;5020160;28;20275;-52
2024/02/15 04:26:39;;;;;;;35.07;16.73;;;11.50;99.90;;;;;;5010354;28;20199;-53
2024/02/15 04:29:08;;;;;;;34.27;17.40;;;11.50;99.90;;;;;;5013655;28;20215;-52
2024/02/15 04:31:38;;;;;;;33.07;17.27;;;11.50;99.90;;;;;;4990264;28;20286;-53
2024/02/15 04:34:05;;;;;;;31.23;15.73;;;11.50;99.90;;;;;;5013887;28;20200;-50
2024/02/15 04:36:34;;;;;;;34.53;16.93;;;11.50;99.90;;;;;;5012077;28;20685;-53
2024/02/15 04:39:01;;;;;;;32.60;16.40;;;11.50;99.90;;;;;;5009038;28;20203;-53
2024/02/15 04:41:28;;;;;;;34.23;16.60;;;11.50;99.90;;;;;;5012817;28;20216;-53
2024/02/15 04:43:57;;;;;;;29.40;15.70;;;11.50;99.90;;;;;;5010216;28;20937;-51
2024/02/15 04:46:25;;;;;;;33.83;16.73;;;11.50;99.90;;;;;;4994345;28;20208;-54
2024/02/15 04:48:52;;;;;;;32.53;16.97;;;11.50;99.90;;;;;;5016579;28;20266;-51
2024/02/15 04:51:19;;;;;;;32.77;16.63;;;11.50;99.90;;;;;;5014717;28;20246;-51
2024/02/15 04:53:48;;;;;;;37.27;16.97;;;11.50;99.90;;;;;;5011017;28;20196;-50
2024/02/15 04:56:16;;;;;;;33.50;16.50;;;11.50;99.90;;;;;;5014231;28;20255;-53
2024/02/15 04:58:45;;;;;;;37.33;18.03;;;11.50;99.90;;;;;;5008500;28;20196;-50
2024/02/15 05:01:17;;;;;;;36.97;17.10;;;11.50;99.90;;;;;;4991507;28;20216;-49
2024/02/15 05:03:45;;;;;;;36.57;17.73;;;11.50;99.90;;;;;;5009368;28;21701;-51
2024/02/15 05:06:12;;;;;;;37.77;18.03;;;11.50;99.90;;;;;;5016967;28;20220;-52
2024/02/15 05:08:42;;;;;;;35.73;17.43;;;11.50;99.90;;;;;;5007223;28;20969;-49
2024/02/15 05:11:14;;;;;;;33.00;17.37;;;11.50;99.90;;;;;;5010898;28;20228;-52
2024/02/15 05:13:41;;;;;;;31.00;15.90;;;11.50;99.90;;;;;;5012579;28;20886;-49
2024/02/15 05:16:08;;;;;;;37.80;17.77;;;11.50;99.90;;;;;;5007127;28;20232;-52
2024/02/15 05:18:37;;;;;;;37.77;16.90;;;11.50;99.90;;;;;;5004902;28;20207;-52
2024/02/15 05:21:09;;;;;;;34.90;16.23;;;11.50;99.90;;;;;;5020036;28;20208;-51
2024/02/15 05:23:35;;;;;;;32.63;16.83;;;11.50;99.90;;;;;;5010378;28;20258;-52
2024/02/15 05:26:02;;;;;;;33.17;16.67;;;11.50;99.90;;;;;;5011592;28;20269;-52
2024/02/15 05:28:29;;;;;;;33.93;16.30;;;11.50;99.90;;;;;;5020813;28;20239;-51
2024/02/15 05:31:11;;;;;;;31.97;16.63;;;11.50;99.90;;;;;;5009243;28;20208;-50
2024/02/15 05:33:42;;;;;;;34.40;17.23;;;11.50;99.90;;;;;;4998216;28;20759;-53
2024/02/15 05:36:10;;;;;;;31.50;16.40;;;11.50;99.90;;;;;;5019848;28;20835;-53
2024/02/15 05:38:36;;;;;;;31.60;15.93;;;11.50;99.90;;;;;;5021632;28;20224;-53
2024/02/15 05:41:08;;;;;;;36.37;16.87;;;11.50;99.90;;;;;;5000336;28;20358;-51
2024/02/15 05:43:36;;;;;;;34.23;16.67;;;11.50;99.90;;;;;;5017422;28;20301;-48
2024/02/15 05:46:03;;;;;;;31.00;15.40;;;11.50;99.90;;;;;;5015374;28;20598;-49
2024/02/15 05:48:30;;;;;;;40.27;17.50;;;11.50;99.90;;;;;;4983290;28;20305;-51
2024/02/15 05:51:00;;;;;;;34.63;16.90;;;11.50;99.90;;;;;;5020863;28;20208;-47
2024/02/15 05:53:27;;;;;;;37.43;17.33;;;11.50;99.90;;;;;;5016396;28;20199;-51
2024/02/15 05:55:54;;;;;;;33.30;16.30;;;11.50;99.90;;;;;;5012969;28;20711;-52
2024/02/15 05:58:21;;;;;;;34.87;16.33;;;11.50;99.90;;;;;;5015525;28;20200;-49
2024/02/15 06:00:49;;;;;;;33.57;16.20;;;11.50;99.90;;;;;;5012658;28;20270;-51
2024/02/15 06:03:16;;;;;;;33.63;16.47;;;11.50;99.90;;;;;;4994011;28;20698;-51
2024/02/15 06:05:44;;;;;;;34.70;16.70;;;11.50;99.90;;;;;;5007782;28;20224;-50
2024/02/15 06:08:13;;;;;;;34.80;15.93;;;11.50;99.90;;;;;;5012037;28;20311;-51
2024/02/15 06:10:40;;;;;;;37.37;16.83;;;11.50;99.90;;;;;;5011442;28;20200;-49
2024/02/15 06:13:08;;;;;;;37.43;17.67;;;11.50;99.90;;;;;;5019959;28;20286;-52
2024/02/15 06:15:35;;;;;;;41.00;17.73;;;11.50;99.90;;;;;;5012086;28;20232;-49
2024/02/15 06:18:08;;;;;;;34.50;17.07;;;11.50;99.90;;;;;;5011389;28;20319;-51
2024/02/15 06:20:35;;;;;;;31.33;16.23;;;11.50;99.90;;;;;;4997811;28;20962;-54
2024/02/15 06:23:04;;;;;;;36.20;17.10;;;11.50;99.90;;;;;;5013684;28;20847;-50
2024/02/15 06:25:32;;;;;;;30.83;16.63;;;11.50;99.90;;;;;;5009264;28;20472;-49
2024/02/15 06:28:02;;;;;;;35.23;16.03;;;11.50;99.90;;;;;;5017151;28;21506;-52
2024/02/15 06:41:36;;;;;;;27.27;15.17;;;11.50;99.90;;;;;;5005018;28;20244;-49
2024/02/15 06:44:03;;;;;;;33.60;17.47;;;11.50;99.90;;;;;;5010996;28;20607;-50
2024/02/15 06:46:30;;;;;;;36.00;16.00;;;11.50;99.90;;;;;;5014327;28;20838;-52
2024/02/15 06:48:58;;;;;;;38.03;17.33;;;11.50;99.90;;;;;;5008670;28;20192;-48
2024/02/15 06:51:24;;;;;;;34.73;17.37;;;11.50;99.90;;;;;;4995076;28;20196;-50
2024/02/15 06:53:55;;;;;;;32.47;16.97;;;11.50;99.90;;;;;;5011526;28;20200;-50
2024/02/15 06:56:22;;;;;;;40.73;18.57;;;11.50;99.90;;;;;;5019664;28;20239;-49
2024/02/15 06:58:51;;;;;;;31.67;16.53;;;11.50;99.90;;;;;;5014576;28;20205;-52
2024/02/15 07:01:17;;;;;;;37.63;17.77;;;11.60;99.90;;;;;;5021514;28;20216;-50
2024/02/15 07:03:45;;;;;;;34.97;18.00;;;11.50;99.90;;;;;;4996909;28;20218;-49
2024/02/15 07:06:13;;;;;;;40.70;18.87;;;11.50;99.90;;;;;;4988824;28;20216;-52
2024/02/15 07:08:40;;;;;;;39.57;19.37;;;11.50;99.90;;;;;;5001656;28;20207;-51
2024/02/15 07:11:09;;;;;;;42.30;21.17;;;11.50;99.90;;;;;;5022805;28;20188;-48
2024/02/15 07:13:36;;;;;;;40.70;20.03;;;11.50;99.90;;;;;;5013292;28;20228;-51
2024/02/15 07:16:08;;;;;;;47.87;21.60;;;11.50;99.90;;;;;;5019118;28;20215;-48
2024/02/15 07:18:35;;;;;;;46.67;21.27;;;11.60;99.90;;;;;;5012359;28;20204;-52
2024/02/15 07:21:03;;;;;;;48.23;21.57;;;11.50;99.90;;;;;;4987905;28;20584;-48
2024/02/15 07:23:33;;;;;;;47.23;21.07;;;11.60;99.90;;;;;;5010929;28;20291;-51
2024/02/15 07:25:59;;;;;;;44.80;19.47;;;11.60;99.90;;;;;;5016579;28;20754;-47
2024/02/15 07:28:27;;;;;;;47.10;22.53;;;11.50;99.90;;;;;;5007611;28;20355;-50
2024/02/15 07:30:54;;;;;;;43.23;20.67;;;11.60;99.90;;;;;;5018401;28;20188;-47
2024/02/15 07:33:23;;;;;;;51.33;21.10;;;11.60;99.90;;;;;;5014667;28;20202;-54
2024/02/15 07:35:51;;;;;;;45.60;19.73;;;11.60;99.90;;;;;;5008084;28;20221;-48
2024/02/15 07:38:17;;;;;;;45.30;20.67;;;11.60;99.90;;;;;;4994419;28;20214;-50
2024/02/15 07:40:44;;;;;;;44.23;19.27;;;11.60;99.90;;;;;;5013159;28;20287;-48
2024/02/15 07:43:11;;;;;;;37.07;17.93;;;11.60;99.90;;;;;;5017561;28;20204;-52
2024/02/15 07:45:38;;;;;;;35.70;17.70;;;11.60;99.90;;;;;;5012214;28;20219;-48
2024/02/15 07:48:06;;;;;;;36.47;17.07;;;11.60;99.90;;;;;;5015963;28;20266;-48
2024/02/15 07:50:36;;;;;;;35.10;16.33;;;11.60;99.90;;;;;;5001158;28;20208;-46
2024/02/15 07:53:05;;;;;;;31.57;15.73;;;11.60;99.90;;;;;;4992129;28;20536;-49
2024/02/15 07:55:32;;;;;;;33.77;15.43;;;11.60;99.90;;;;;;5006468;28;20213;-48
2024/02/15 07:57:59;;;;;;;27.87;15.07;;;11.60;99.90;;;;;;5018407;28;20203;-49
2024/02/15 08:00:27;;;;;;;34.20;15.57;;;11.60;99.90;;;;;;5001240;28;20219;-48
2024/02/15 08:02:54;;;;;;;29.83;14.53;;;11.60;99.90;;;;;;5023106;28;20698;-48
2024/02/15 08:05:21;;;;;;;29.33;13.83;;;11.70;99.90;;;;;;5008133;28;20234;-52
2024/02/15 08:07:49;;;;;;;28.83;14.23;;;11.60;99.90;;;;;;4980617;28;20315;-48
2024/02/15 08:10:17;;;;;;;30.17;13.87;;;11.60;99.90;;;;;;5012691;28;20291;-49
2024/02/15 08:12:44;;;;;;;29.13;14.37;;;11.60;99.90;;;;;;5014908;28;20183;-50
2024/02/15 08:15:12;;;;;;;22.60;12.50;;;11.70;99.90;;;;;;5017410;28;20231;-50
2024/02/15 08:17:46;;;;;;;24.97;13.40;;;11.70;99.90;;;;;;5006175;28;20282;-50
2024/02/15 08:20:13;;;;;;;26.00;12.97;;;11.70;99.90;;;;;;5007651;28;20201;-50
2024/02/15 08:22:43;;;;;;;25.83;13.87;;;11.70;99.90;;;;;;5003697;28;20224;-49
2024/02/15 08:25:12;;;;;;;28.73;13.30;;;11.70;99.90;;;;;;4990993;28;20230;-47
2024/02/15 08:27:42;;;;;;;25.43;14.00;;;11.70;99.90;;;;;;5009450;28;20223;-52
2024/02/15 08:30:11;;;;;;;22.80;13.03;;;11.70;99.90;;;;;;5018224;28;20200;-47
2024/02/15 08:32:39;;;;;;;26.27;13.37;;;11.70;99.90;;;;;;5012685;28;20196;-50
2024/02/15 08:35:07;;;;;;;27.70;13.63;;;11.70;99.90;;;;;;5016323;28;20220;-47
2024/02/15 08:37:35;;;;;;;31.33;14.60;;;11.70;99.90;;;;;;5010949;28;20291;-53
2024/02/15 08:40:02;;;;;;;25.37;14.10;;;11.80;99.90;;;;;;4989748;28;20206;-47
2024/02/15 08:42:30;;;;;;;33.23;15.13;;;11.70;99.90;;;;;;5012592;28;20231;-49
2024/02/15 08:44:59;;;;;;;29.67;16.10;;;11.70;99.90;;;;;;5012922;28;21034;-48
2024/02/15 08:47:26;;;;;;;28.93;15.60;;;11.70;99.90;;;;;;5015318;28;20671;-49
2024/02/15 08:49:53;;;;;;;32.47;15.67;;;11.80;99.90;;;;;;5015697;28;20195;-49
2024/02/15 08:52:20;;;;;;;29.13;15.90;;;11.80;99.90;;;;;;5021028;28;20250;-49
2024/02/15 08:54:47;;;;;;;32.50;16.17;;;11.90;99.90;;;;;;4985774;28;20613;-49
2024/02/15 08:57:14;;;;;;;32.80;15.67;;;11.80;99.90;;;;;;5017832;28;20262;-50
2024/02/15 08:59:42;;;;;;;25.80;14.73;;;11.90;99.90;;;;;;5018845;28;20207;-51
2024/02/15 09:02:09;;;;;;;33.43;14.67;;;11.90;99.90;;;;;;5018710;28;20239;-51
2024/02/15 09:04:36;;;;;;;34.30;16.40;;;11.90;99.90;;;;;;5013610;28;20453;-48
2024/02/15 09:07:04;;;;;;;31.10;15.50;;;11.90;99.90;;;;;;5013265;28;20691;-48
2024/02/15 09:09:33;;;;;;;27.03;13.87;;;12.00;99.90;;;;;;5010570;28;20220;-53
2024/02/15 09:12:05;;;;;;;25.77;13.83;;;12.00;99.90;;;;;;4991250;28;20215;-48
2024/02/15 09:14:32;;;;;;;26.60;15.37;;;12.00;99.90;;;;;;5015616;28;20212;-48
2024/02/15 09:17:01;;;;;;;23.10;12.93;;;12.00;99.90;;;;;;5017299;28;20258;-47
2024/02/15 09:19:28;;;;;;;23.20;13.20;;;12.10;99.90;;;;;;5019957;28;20246;-51
2024/02/15 09:21:56;;;;;;;25.00;14.00;;;12.00;99.90;;;;;;5017407;28;20212;-51
2024/02/15 09:24:25;;;;;;;20.47;11.57;;;12.10;99.90;;;;;;5013430;28;20285;-48
2024/02/15 09:26:52;;;;;;;24.70;12.87;;;12.10;99.90;;;;;;4995083;28;20932;-48
2024/02/15 09:29:19;;;;;;;21.77;10.90;;;12.10;99.90;;;;;;5017531;28;20566;-49
2024/02/15 09:31:48;;;;;;;16.87;10.33;;;12.10;99.90;;;;;;5013253;28;20287;-48
2024/02/15 09:34:16;;;;;;;20.53;10.70;;;12.20;99.90;;;;;;5017713;28;20238;-48
2024/02/15 09:36:43;;;;;;;18.07;10.37;;;12.20;99.90;;;;;;5014465;28;20188;-51
2024/02/15 09:39:13;;;;;;;22.13;12.20;;;12.20;99.90;;;;;;5021339;28;20222;-49
2024/02/15 09:41:42;;;;;;;20.17;10.97;;;12.20;99.90;;;;;;4982526;28;20228;-50
2024/02/15 09:44:09;;;;;;;18.50;10.83;;;12.20;99.90;;;;;;5015148;28;20242;-51
2024/02/15 09:46:38;;;;;;;17.20;10.57;;;12.20;99.90;;;;;;5014291;28;20266;-52
2024/02/15 09:49:07;;;;;;;18.70;10.73;;;12.20;99.90;;;;;;5016590;28;20212;-50
2024/02/15 09:51:36;;;;;;;19.47;10.97;;;12.30;99.90;;;;;;5018427;28;20240;-52
2024/02/15 09:54:05;;;;;;;18.27;11.27;;;12.30;99.90;;;;;;5016780;28;20208;-48
2024/02/15 09:56:33;;;;;;;20.13;11.90;;;12.30;99.90;;;;;;4997036;28;20196;-49
2024/02/15 09:59:01;;;;;;;15.97;11.20;;;12.30;99.90;;;;;;5008273;28;20220;-51
2024/02/15 10:01:32;;;;;;;19.10;11.60;;;12.40;99.90;;;;;;5020522;28;20667;-49
2024/02/15 10:04:00;;;;;;;19.60;11.93;;;12.30;99.90;;;;;;5018464;28;20241;-48
2024/02/15 10:06:27;;;;;;;19.70;11.47;;;12.40;99.90;;;;;;5013747;28;20234;-51
2024/02/15 10:09:28;;;;;;;16.00;11.27;;;12.40;99.90;;;;;;5013952;28;20200;-48
2024/02/15 10:11:57;;;;;;;18.20;11.77;;;12.40;99.90;;;;;;5007647;28;20257;-48
2024/02/15 10:14:24;;;;;;;18.17;11.23;;;12.40;99.90;;;;;;4989145;28;20302;-49
2024/02/15 10:16:52;;;;;;;20.20;12.27;;;12.40;99.90;;;;;;5017561;28;20711;-48
2024/02/15 10:19:20;;;;;;;22.83;11.70;;;12.40;99.90;;;;;;5019252;28;20208;-51
2024/02/15 10:21:47;;;;;;;19.30;11.67;;;12.40;99.90;;;;;;5015119;28;20219;-49
2024/02/15 10:24:16;;;;;;;16.60;10.97;;;12.40;99.90;;;;;;5019260;28;20341;-50
2024/02/15 10:26:42;;;;;;;14.70;11.10;;;12.40;99.90;;;;;;5005500;28;20195;-51
2024/02/15 10:29:10;;;;;;;15.30;11.07;;;12.40;99.90;;;;;;4994598;28;20709;-49
2024/02/15 10:31:39;;;;;;;19.37;11.97;;;12.50;99.90;;;;;;5010200;28;20227;-48
2024/02/15 10:34:07;;;;;;;14.47;11.80;;;12.40;99.90;;;;;;5016338;28;20215;-51
2024/02/15 10:36:34;;;;;;;19.40;12.87;;;12.50;99.90;;;;;;5015949;28;20290;-49
2024/02/15 10:39:19;;;;;;;21.53;13.50;;;12.50;99.90;;;;;;5018417;28;20205;-49
2024/02/15 10:41:48;;;;;;;22.57;13.70;;;12.60;99.90;;;;;;5014302;28;20199;-51
2024/02/15 10:44:19;;;;;;;21.37;13.17;;;12.50;99.90;;;;;;4993980;28;20200;-50
2024/02/15 10:46:50;;;;;;;24.10;13.20;;;12.50;99.90;;;;;;5012211;28;20208;-49
2024/02/15 10:49:18;;;;;;;21.47;14.10;;;12.50;99.90;;;;;;5015121;28;20745;-53
2024/02/15 10:51:48;;;;;;;22.17;13.73;;;12.50;99.90;;;;;;5017018;28;20343;-48
2024/02/15 10:54:23;;;;;;;22.87;14.37;;;12.50;99.90;;;;;;5016494;28;20287;-51
2024/02/15 10:56:56;;;;;;;21.43;13.80;;;12.50;99.90;;;;;;5017738;28;20348;-48
2024/02/15 10:59:32;;;;;;;25.70;15.53;;;12.60;99.90;;;;;;5008297;28;20195;-53
2024/02/15 11:02:04;;;;;;;24.50;14.53;;;12.60;99.90;;;;;;4991647;28;20215;-52
2024/02/15 11:04:36;;;;;;;31.03;16.17;;;12.60;99.90;;;;;;5020557;28;20227;-47
2024/02/15 11:07:06;;;;;;;25.50;15.70;;;12.60;99.90;;;;;;5007078;28;20266;-48
2024/02/15 11:09:36;;;;;;;22.90;15.40;;;12.60;99.90;;;;;;5020916;28;20553;-49
2024/02/15 11:12:03;;;;;;;21.93;16.27;;;12.60;99.90;;;;;;5016178;28;20192;-47
2024/02/15 11:14:31;;;;;;;22.20;16.00;;;12.60;99.90;;;;;;5012376;28;20251;-48
2024/02/15 11:17:00;;;;;;;25.83;16.50;;;12.60;99.90;;;;;;4982287;28;20241;-49
2024/02/15 11:19:46;;;;;;;24.20;16.77;;;12.70;99.90;;;;;;5020417;28;20228;-51
2024/02/15 11:22:15;;;;;;;26.13;17.17;;;12.70;99.90;;;;;;5002949;28;20249;-53
2024/02/15 11:24:51;;;;;;;25.90;18.20;;;12.70;99.90;;;;;;5016057;28;20262;-47
2024/02/15 11:27:28;;;;;;;27.40;17.80;;;12.70;99.90;;;;;;5016175;28;20199;-48
2024/02/15 11:29:58;;;;;;;24.57;17.70;;;12.70;99.90;;;;;;4998809;28;20653;-51
2024/02/15 11:32:43;;;;;;;23.70;17.33;;;12.70;99.90;;;;;;4985223;28;20646;-52
2024/02/15 11:35:14;;;;;;;26.70;17.97;;;12.70;99.90;;;;;;5010929;28;20310;-51
2024/02/15 11:37:52;;;;;;;25.27;17.87;;;12.70;99.90;;;;;;5008305;28;20204;-51
2024/02/15 11:40:23;;;;;;;30.67;18.97;;;12.70;99.90;;;;;;5015978;28;20187;-50
2024/02/15 11:42:50;;;;;;;29.80;19.27;;;12.70;99.90;;;;;;5003949;28;20215;-49
2024/02/15 11:45:19;;;;;;;25.50;17.70;;;12.70;99.90;;;;;;5009734;28;20567;-52
2024/02/15 11:47:50;;;;;;;32.30;19.57;;;12.70;99.90;;;;;;4973921;28;20334;-50
2024/02/15 11:50:17;;;;;;;27.63;17.97;;;12.70;99.90;;;;;;5013674;28;20203;-50
2024/02/15 11:52:48;;;;;;;27.30;17.70;;;12.70;99.90;;;;;;4994094;28;20207;-48
2024/02/15 11:55:19;;;;;;;32.30;19.37;;;12.70;99.90;;;;;;5019023;28;20220;-51
2024/02/15 11:58:02;;;;;;;26.87;18.37;;;12.70;99.90;;;;;;5004887;28;20208;-50
2024/02/15 12:19:50;;;;;;;32.67;18.93;;;12.70;99.90;;;;;;4985262;28;20772;-47
2024/02/15 12:22:20;;;;;;;34.33;19.07;;;12.70;99.90;;;;;;5010909;28;20223;-49
2024/02/15 12:24:54;;;;;;;31.47;19.70;;;12.60;99.90;;;;;;5003260;28;20224;-47
2024/02/15 12:27:21;;;;;;;30.63;19.30;;;12.60;99.90;;;;;;5025291;28;20276;-47
2024/02/15 12:29:55;;;;;;;31.20;19.63;;;12.60;99.90;;;;;;5023861;28;20768;-46
2024/02/15 12:32:24;;;;;;;32.43;19.13;;;12.60;99.90;;;;;;5016874;28;20191;-50
2024/02/15 12:34:52;;;;;;;30.83;20.27;;;12.70;99.90;;;;;;5006432;28;20219;-49
2024/02/15 12:37:20;;;;;;;27.37;19.80;;;12.70;99.90;;;;;;5019680;28;20662;-48
2024/02/15 12:39:48;;;;;;;27.10;18.57;;;12.70;99.90;;;;;;5003829;28;20215;-46
2024/02/15 12:42:17;;;;;;;29.23;18.80;;;12.70;99.90;;;;;;5024621;28;20192;-48
2024/02/15 12:44:47;;;;;;;28.37;18.43;;;12.60;99.90;;;;;;5024891;28;20212;-49
2024/02/15 12:47:23;;;;;;;26.47;17.53;;;12.60;99.90;;;;;;5014316;28;20211;-50
2024/02/15 12:49:51;;;;;;;27.57;17.70;;;12.60;99.90;;;;;;5007553;28;21150;-48
2024/02/15 12:52:39;;;;;;;29.43;17.60;;;12.60;99.90;;;;;;5018429;28;20294;-46
2024/02/15 12:55:14;;;;;;;26.73;18.23;;;12.60;99.90;;;;;;4995613;28;21711;-48
2024/02/15 12:57:44;;;;;;;29.43;17.70;;;12.60;99.90;;;;;;5024365;28;20196;-48
2024/02/15 13:00:17;;;;;;;22.47;16.17;;;12.60;99.90;;;;;;5022182;28;20188;-48
2024/02/15 13:02:48;;;;;;;23.07;16.47;;;12.60;99.90;;;;;;5023537;28;20208;-48
2024/02/15 13:05:18;;;;;;;19.47;13.73;;;12.60;99.90;;;;;;5019764;28;20273;-47